Time;durP1;ratioP1;P1;durP2;ratioP2;P2;SDS_P1;SDS_P2;PMS_P1;PMS_P2;Temp;Humidity;BMP_temperature;BMP_pressure;BME280_temperature;BME280_humidity;BME280_pressure;Samples;Min_cycle;Max_cycle;Signal;HPM_P1;HPM_P2
2023/07/15 00:01:08;;;;;;;3.40;3.10;;;21.40;71.40;;;;;;4967738;28;20372;-63
2023/07/15 00:03:34;;;;;;;3.55;3.25;;;21.40;72.20;;;;;;4967141;28;20031;-64
2023/07/15 00:06:00;;;;;;;3.60;3.30;;;21.40;71.70;;;;;;4966502;28;20050;-63
2023/07/15 00:08:27;;;;;;;3.97;3.20;;;21.40;71.70;;;;;;4967041;28;20066;-63
2023/07/15 00:10:53;;;;;;;4.65;3.40;;;21.40;71.80;;;;;;4969644;28;20112;-63
2023/07/15 00:13:19;;;;;;;3.90;3.28;;;21.40;71.80;;;;;;4974147;28;20055;-63
2023/07/15 00:15:49;;;;;;;3.78;3.50;;;21.40;71.90;;;;;;4971735;28;20153;-63
2023/07/15 00:18:16;;;;;;;5.05;3.53;;;21.40;72.00;;;;;;4972065;28;20047;-64
2023/07/15 00:20:42;;;;;;;3.30;3.03;;;21.40;71.80;;;;;;4972557;28;20519;-64
2023/07/15 00:23:19;;;;;;;4.30;3.33;;;21.30;71.80;;;;;;4968749;28;20027;-63
2023/07/15 00:25:46;;;;;;;3.17;2.90;;;21.30;72.40;;;;;;4969619;28;20035;-63
2023/07/15 00:28:11;;;;;;;3.58;3.28;;;21.30;72.10;;;;;;4972708;28;20031;-63
2023/07/15 00:30:37;;;;;;;3.70;3.00;;;21.20;72.30;;;;;;4970490;28;20046;-64
2023/07/15 00:33:05;;;;;;;3.70;3.40;;;21.20;72.40;;;;;;4973998;28;20047;-63
2023/07/15 00:35:32;;;;;;;3.10;2.80;;;21.20;72.30;;;;;;4970535;28;20062;-63
2023/07/15 00:37:58;;;;;;;4.90;3.20;;;21.10;72.20;;;;;;4974062;28;20039;-63
2023/07/15 00:40:25;;;;;;;4.00;3.10;;;21.10;72.50;;;;;;4974427;28;20061;-63
2023/07/15 00:43:29;;;;;;;2.90;2.70;;;21.00;72.60;;;;;;4975721;28;20137;-63
2023/07/15 00:46:19;;;;;;;5.22;3.35;;;21.00;73.80;;;;;;4970171;28;20041;-63
2023/07/15 00:49:17;;;;;;;3.47;3.00;;;20.90;73.60;;;;;;4973387;28;20081;-63
2023/07/15 00:52:00;;;;;;;3.30;3.00;;;20.80;72.90;;;;;;4975969;28;20034;-63
2023/07/15 00:54:28;;;;;;;3.47;3.22;;;20.80;73.70;;;;;;4972489;28;20118;-63
2023/07/15 00:56:56;;;;;;;6.10;3.25;;;20.80;73.20;;;;;;4973757;28;20545;-63
2023/07/15 00:59:22;;;;;;;3.40;3.10;;;20.70;73.50;;;;;;4972789;28;20039;-63
2023/07/15 01:01:49;;;;;;;5.10;3.42;;;20.70;73.60;;;;;;4972952;28;20133;-63
2023/07/15 01:04:15;;;;;;;3.17;2.88;;;20.60;73.90;;;;;;4973385;28;20498;-63
2023/07/15 01:06:45;;;;;;;4.85;3.13;;;20.60;74.10;;;;;;4974572;28;20446;-64
2023/07/15 01:09:11;;;;;;;3.10;2.70;;;20.60;74.10;;;;;;4979008;28;20375;-63
2023/07/15 01:11:36;;;;;;;3.40;3.10;;;20.50;74.20;;;;;;4981441;28;20069;-64
2023/07/15 01:14:03;;;;;;;3.78;3.33;;;20.50;74.50;;;;;;4980044;28;20155;-63
2023/07/15 01:16:28;;;;;;;3.58;3.28;;;20.50;74.50;;;;;;4976838;28;22471;-63
2023/07/15 01:18:55;;;;;;;4.22;3.38;;;20.60;74.70;;;;;;4972168;28;20034;-63
2023/07/15 01:21:21;;;;;;;3.88;3.40;;;20.50;74.60;;;;;;4973740;28;20132;-63
2023/07/15 01:23:47;;;;;;;4.82;3.30;;;20.40;74.70;;;;;;4971910;28;20034;-63
2023/07/15 01:26:13;;;;;;;3.20;2.92;;;20.40;74.90;;;;;;4972081;28;20129;-63
2023/07/15 01:28:38;;;;;;;3.33;3.03;;;20.30;74.90;;;;;;4974999;28;20083;-63
2023/07/15 01:31:04;;;;;;;3.92;3.42;;;20.30;74.90;;;;;;4973464;28;20563;-63
2023/07/15 01:33:31;;;;;;;3.45;3.15;;;20.30;75.10;;;;;;4973103;28;20030;-63
2023/07/15 01:35:56;;;;;;;3.60;3.30;;;20.30;75.40;;;;;;4974202;28;20081;-63
2023/07/15 01:38:22;;;;;;;3.70;3.40;;;20.20;75.50;;;;;;4970863;28;20034;-64
2023/07/15 01:40:47;;;;;;;3.75;3.45;;;20.10;75.60;;;;;;4974901;28;20045;-61
2023/07/15 01:43:13;;;;;;;5.15;3.63;;;20.10;75.60;;;;;;4972743;28;20125;-63
2023/07/15 01:45:39;;;;;;;6.25;3.90;;;20.10;75.90;;;;;;4973251;28;20038;-61
2023/07/15 01:48:05;;;;;;;4.07;3.78;;;20.10;76.00;;;;;;4971106;28;20246;-63
2023/07/15 01:50:31;;;;;;;5.03;3.88;;;20.00;75.90;;;;;;4968618;28;20573;-63
2023/07/15 01:52:58;;;;;;;4.20;3.85;;;20.00;76.00;;;;;;4970327;28;20057;-64
2023/07/15 01:55:23;;;;;;;5.40;3.97;;;20.00;76.10;;;;;;4970771;28;20043;-63
2023/07/15 01:57:49;;;;;;;4.43;4.03;;;19.90;76.20;;;;;;4969060;28;20038;-63
2023/07/15 02:00:16;;;;;;;5.57;4.00;;;19.90;76.30;;;;;;4972362;28;20114;-63
2023/07/15 02:02:43;;;;;;;4.55;3.88;;;19.90;76.40;;;;;;4968630;28;20027;-63
2023/07/15 02:05:09;;;;;;;4.15;3.72;;;19.80;76.50;;;;;;4969740;28;20031;-63
2023/07/15 02:07:35;;;;;;;4.07;3.67;;;19.80;76.50;;;;;;4972144;28;20093;-63
2023/07/15 02:10:00;;;;;;;4.65;4.22;;;19.80;76.50;;;;;;4968954;28;20066;-62
2023/07/15 02:12:26;;;;;;;6.72;3.65;;;19.70;76.50;;;;;;4969940;28;20486;-62
2023/07/15 02:14:52;;;;;;;4.75;3.92;;;19.70;76.60;;;;;;4968621;28;20090;-63
2023/07/15 02:17:20;;;;;;;4.40;4.00;;;19.70;76.90;;;;;;4971637;28;20039;-63
2023/07/15 02:19:47;;;;;;;4.75;4.05;;;19.60;76.70;;;;;;4967757;28;20400;-63
2023/07/15 02:22:13;;;;;;;4.18;3.78;;;19.60;76.70;;;;;;4975658;28;20033;-63
2023/07/15 02:24:38;;;;;;;4.15;3.78;;;19.60;76.80;;;;;;4969571;28;20031;-64
2023/07/15 02:27:04;;;;;;;4.22;3.83;;;19.60;77.00;;;;;;4969270;28;20035;-62
2023/07/15 02:29:30;;;;;;;4.68;4.00;;;19.50;77.10;;;;;;4970484;28;20763;-63
2023/07/15 02:31:56;;;;;;;5.47;4.03;;;19.50;77.20;;;;;;4971386;28;20105;-63
2023/07/15 02:34:21;;;;;;;4.35;3.95;;;19.40;77.10;;;;;;4967850;28;20426;-61
2023/07/15 02:36:47;;;;;;;4.28;3.88;;;19.40;77.30;;;;;;4968538;28;20406;-63
2023/07/15 02:39:13;;;;;;;4.03;3.67;;;19.40;77.60;;;;;;4969204;28;20097;-63
2023/07/15 02:41:41;;;;;;;4.57;3.95;;;19.40;77.70;;;;;;4968074;28;20035;-63
2023/07/15 02:44:06;;;;;;;4.88;3.95;;;19.30;77.90;;;;;;4968422;28;20038;-63
2023/07/15 02:46:32;;;;;;;4.97;3.97;;;19.30;77.70;;;;;;4968313;28;20583;-63
2023/07/15 02:48:58;;;;;;;4.93;3.90;;;19.30;77.90;;;;;;4974567;28;20405;-62
2023/07/15 02:51:24;;;;;;;5.70;3.53;;;19.30;78.20;;;;;;4972563;28;20058;-62
2023/07/15 02:53:50;;;;;;;4.30;3.90;;;19.30;78.10;;;;;;4971727;28;20034;-63
2023/07/15 02:56:15;;;;;;;4.45;3.78;;;19.30;78.20;;;;;;4971844;28;20035;-62
2023/07/15 02:58:41;;;;;;;4.30;4.00;;;19.30;78.20;;;;;;4971748;28;20045;-63
2023/07/15 03:01:08;;;;;;;4.35;3.95;;;19.30;78.00;;;;;;4972811;28;20031;-63
2023/07/15 03:03:33;;;;;;;4.10;3.70;;;19.30;77.90;;;;;;4973983;28;20525;-63
2023/07/15 03:06:00;;;;;;;4.45;4.05;;;19.30;77.80;;;;;;4971651;28;20038;-63
2023/07/15 03:08:25;;;;;;;3.80;3.50;;;19.30;78.00;;;;;;4971742;28;20042;-64
2023/07/15 03:10:51;;;;;;;6.60;4.03;;;19.30;78.10;;;;;;4975259;28;20129;-62
2023/07/15 03:13:17;;;;;;;4.80;4.40;;;19.20;78.20;;;;;;4975028;28;20048;-62
2023/07/15 03:15:46;;;;;;;6.22;4.47;;;19.20;78.20;;;;;;4975230;28;20035;-63
2023/07/15 03:18:11;;;;;;;4.90;4.50;;;19.20;78.20;;;;;;4970340;28;20078;-63
2023/07/15 03:20:37;;;;;;;4.70;4.30;;;19.20;78.60;;;;;;4968730;28;20042;-63
2023/07/15 03:23:03;;;;;;;4.60;4.20;;;19.20;78.50;;;;;;4968585;28;20441;-63
2023/07/15 03:25:29;;;;;;;5.30;4.55;;;19.10;78.50;;;;;;4971194;28;20086;-63
2023/07/15 03:27:55;;;;;;;6.70;4.60;;;19.10;78.70;;;;;;4973094;28;20101;-63
2023/07/15 03:30:21;;;;;;;4.28;3.97;;;19.10;79.00;;;;;;4971254;28;20458;-63
2023/07/15 03:32:47;;;;;;;4.88;4.32;;;19.00;79.00;;;;;;4970580;28;20245;-62
2023/07/15 03:35:13;;;;;;;5.00;4.47;;;19.00;79.30;;;;;;4970303;28;20046;-62
2023/07/15 03:37:41;;;;;;;4.40;4.00;;;19.10;79.10;;;;;;4972925;28;20153;-62
2023/07/15 03:40:08;;;;;;;4.50;4.03;;;19.00;78.90;;;;;;4970106;28;20027;-63
2023/07/15 03:42:34;;;;;;;4.60;3.72;;;19.10;78.90;;;;;;4970669;28;20065;-63
2023/07/15 03:45:00;;;;;;;5.93;4.40;;;19.10;79.00;;;;;;4971937;28;20525;-63
2023/07/15 03:47:26;;;;;;;4.38;3.95;;;19.10;79.10;;;;;;4970343;28;20061;-63
2023/07/15 03:49:51;;;;;;;5.68;4.13;;;19.10;79.10;;;;;;4971368;28;20042;-62
2023/07/15 03:52:17;;;;;;;4.45;4.03;;;19.10;79.00;;;;;;4971992;28;20411;-63
2023/07/15 03:54:43;;;;;;;5.90;4.00;;;19.10;79.00;;;;;;4972050;28;20050;-62
2023/07/15 03:57:10;;;;;;;4.82;4.28;;;19.20;78.90;;;;;;4970541;28;20121;-63
2023/07/15 03:59:36;;;;;;;4.82;4.22;;;19.20;78.70;;;;;;4966714;28;20048;-63
2023/07/15 04:02:03;;;;;;;4.40;4.07;;;19.10;78.80;;;;;;4968111;28;20038;-63
2023/07/15 04:04:29;;;;;;;5.75;3.97;;;19.10;79.00;;;;;;4970598;28;20035;-63
2023/07/15 04:06:57;;;;;;;5.57;4.07;;;19.10;78.90;;;;;;4972523;28;20042;-63
2023/07/15 04:09:23;;;;;;;6.05;3.97;;;19.10;79.10;;;;;;4968698;28;20030;-62
2023/07/15 04:11:49;;;;;;;4.80;4.10;;;19.10;79.20;;;;;;4968150;28;20042;-61
2023/07/15 04:14:16;;;;;;;4.93;3.92;;;19.10;79.40;;;;;;4971183;28;20041;-63
2023/07/15 04:16:42;;;;;;;4.57;4.18;;;19.10;79.60;;;;;;4967730;28;20406;-63
2023/07/15 04:19:08;;;;;;;5.40;4.00;;;19.10;80.50;;;;;;4969733;28;20039;-63
2023/07/15 04:21:33;;;;;;;5.60;4.10;;;19.10;79.60;;;;;;4966585;28;20569;-63
2023/07/15 04:23:59;;;;;;;4.60;4.10;;;19.10;79.40;;;;;;4966867;28;20031;-62
2023/07/15 04:26:26;;;;;;;4.40;3.95;;;19.10;79.60;;;;;;4966421;28;20042;-63
2023/07/15 04:28:54;;;;;;;5.35;3.78;;;19.10;80.00;;;;;;4965551;28;20301;-63
2023/07/15 04:31:20;;;;;;;5.75;4.03;;;19.10;80.10;;;;;;4968874;28;20023;-63
2023/07/15 04:33:47;;;;;;;4.20;3.90;;;19.10;80.10;;;;;;4969859;28;20453;-63
2023/07/15 04:36:13;;;;;;;4.40;4.00;;;19.00;80.10;;;;;;4971962;28;20038;-63
2023/07/15 04:38:39;;;;;;;4.10;3.70;;;19.10;80.20;;;;;;4969623;28;20240;-63
2023/07/15 04:41:04;;;;;;;4.68;4.05;;;19.00;80.30;;;;;;4970076;28;20099;-63
2023/07/15 04:43:31;;;;;;;4.38;3.97;;;19.10;80.40;;;;;;4969265;28;20524;-64
2023/07/15 04:45:56;;;;;;;7.32;3.80;;;19.10;80.50;;;;;;4968655;28;20039;-62
2023/07/15 04:48:23;;;;;;;4.43;3.75;;;19.10;80.50;;;;;;4972963;28;20690;-63
2023/07/15 04:50:50;;;;;;;5.00;3.97;;;19.20;80.40;;;;;;4971829;28;20153;-63
2023/07/15 04:53:15;;;;;;;4.40;4.00;;;19.20;80.60;;;;;;4969332;28;20089;-63
2023/07/15 04:55:42;;;;;;;4.22;3.80;;;19.20;80.60;;;;;;4969042;28;20039;-63
2023/07/15 04:58:08;;;;;;;4.95;4.13;;;19.20;80.80;;;;;;4971709;28;20151;-63
2023/07/15 05:00:34;;;;;;;5.88;4.38;;;19.20;81.20;;;;;;4970983;28;20038;-63
2023/07/15 05:03:04;;;;;;;5.30;4.25;;;19.20;81.20;;;;;;4971056;28;20101;-63
2023/07/15 05:05:30;;;;;;;4.35;4.05;;;19.20;81.30;;;;;;4973747;28;20035;-61
2023/07/15 05:08:00;;;;;;;4.47;4.00;;;19.20;82.40;;;;;;4977422;28;20039;-63
2023/07/15 05:10:25;;;;;;;5.65;4.20;;;19.20;82.10;;;;;;4979877;28;20038;-63
2023/07/15 05:12:51;;;;;;;5.05;4.07;;;19.30;82.00;;;;;;4974665;28;20038;-63
2023/07/15 05:15:16;;;;;;;4.47;4.10;;;19.30;82.00;;;;;;4978081;28;20038;-63
2023/07/15 05:17:44;;;;;;;5.53;4.38;;;19.40;81.90;;;;;;4974757;28;20510;-63
2023/07/15 05:20:18;;;;;;;5.43;4.00;;;19.50;81.90;;;;;;4973485;28;20270;-62
2023/07/15 05:22:44;;;;;;;5.15;4.53;;;19.60;82.00;;;;;;4971183;28;20038;-63
2023/07/15 05:25:10;;;;;;;4.95;4.35;;;19.60;81.80;;;;;;4970473;28;20038;-63
2023/07/15 05:27:35;;;;;;;5.18;4.47;;;19.70;81.90;;;;;;4970682;28;20052;-64
2023/07/15 05:30:01;;;;;;;5.55;4.70;;;19.80;82.00;;;;;;4969259;28;20335;-63
2023/07/15 05:32:27;;;;;;;5.82;3.90;;;19.90;82.40;;;;;;4971952;28;20061;-61
2023/07/15 05:34:53;;;;;;;4.95;4.05;;;20.00;82.50;;;;;;4971969;28;20073;-63
2023/07/15 05:37:18;;;;;;;5.03;4.28;;;20.10;82.80;;;;;;4973588;28;20310;-63
2023/07/15 05:39:47;;;;;;;4.70;4.22;;;20.20;82.90;;;;;;4969463;28;20058;-63
2023/07/15 05:42:12;;;;;;;5.50;4.40;;;20.20;82.40;;;;;;4967713;28;20308;-63
2023/07/15 05:44:38;;;;;;;5.72;4.03;;;20.30;81.90;;;;;;4972240;28;20438;-63
2023/07/15 05:47:03;;;;;;;7.30;4.10;;;20.40;81.70;;;;;;4967346;28;20038;-62
2023/07/15 05:49:29;;;;;;;6.78;4.63;;;20.50;81.90;;;;;;4972577;28;20026;-63
2023/07/15 05:51:55;;;;;;;4.35;4.05;;;20.60;82.20;;;;;;4972548;28;20035;-63
2023/07/15 05:54:20;;;;;;;6.32;4.20;;;20.70;82.40;;;;;;4971562;28;20058;-63
2023/07/15 05:56:46;;;;;;;5.43;4.30;;;20.80;83.10;;;;;;4971445;28;20128;-63
2023/07/15 05:59:11;;;;;;;5.68;3.83;;;20.90;81.70;;;;;;4972526;28;20604;-63
2023/07/15 06:01:37;;;;;;;4.72;4.00;;;21.10;81.80;;;;;;4972406;28;20125;-61
2023/07/15 06:04:06;;;;;;;4.28;3.88;;;21.20;81.30;;;;;;4969849;28;20088;-64
2023/07/15 06:06:31;;;;;;;5.97;4.22;;;21.30;81.80;;;;;;4972314;28;20113;-63
2023/07/15 06:08:57;;;;;;;4.95;3.75;;;21.40;81.60;;;;;;4973565;28;20038;-62
2023/07/15 06:11:22;;;;;;;5.72;3.95;;;21.50;80.80;;;;;;4969145;28;20085;-63
2023/07/15 06:13:48;;;;;;;4.20;3.75;;;21.60;80.10;;;;;;4970291;28;20061;-63
2023/07/15 06:16:14;;;;;;;4.57;3.80;;;21.70;79.90;;;;;;4969218;28;20042;-63
2023/07/15 06:18:39;;;;;;;4.38;3.67;;;21.80;79.80;;;;;;4969760;28;20039;-63
2023/07/15 06:21:07;;;;;;;4.07;3.67;;;21.90;79.80;;;;;;4973594;28;20035;-63
2023/07/15 06:23:33;;;;;;;4.90;3.70;;;22.00;80.50;;;;;;4976690;28;20438;-63
2023/07/15 06:25:58;;;;;;;4.35;3.80;;;22.10;80.60;;;;;;4968650;28;20035;-63
2023/07/15 06:28:24;;;;;;;5.90;3.97;;;22.20;80.10;;;;;;4968583;28;20035;-63
2023/07/15 06:30:50;;;;;;;5.03;4.45;;;22.30;79.40;;;;;;4967348;28;20055;-63
2023/07/15 06:33:16;;;;;;;5.20;4.38;;;22.40;79.50;;;;;;4969264;28;20045;-63
2023/07/15 06:35:42;;;;;;;4.55;4.15;;;22.50;79.10;;;;;;4968609;28;20031;-64
2023/07/15 06:38:07;;;;;;;4.32;3.65;;;22.60;78.90;;;;;;4972418;28;20150;-63
2023/07/15 06:40:33;;;;;;;4.97;4.10;;;22.70;79.00;;;;;;4971507;28;20026;-64
2023/07/15 06:42:59;;;;;;;4.18;3.78;;;22.80;79.30;;;;;;4973034;28;20114;-63
2023/07/15 06:45:32;;;;;;;5.35;4.05;;;22.90;78.80;;;;;;4971444;28;20038;-62
2023/07/15 06:47:58;;;;;;;4.47;3.70;;;23.00;77.90;;;;;;4973538;28;20050;-63
2023/07/15 06:50:23;;;;;;;4.57;3.60;;;23.10;77.40;;;;;;4968032;28;20047;-63
2023/07/15 06:52:49;;;;;;;4.45;3.78;;;23.20;77.00;;;;;;4971667;28;20403;-64
2023/07/15 06:55:14;;;;;;;4.40;4.00;;;23.30;76.80;;;;;;4969473;28;20047;-63
2023/07/15 06:57:40;;;;;;;4.35;3.65;;;23.40;76.10;;;;;;4972273;28;20280;-63
2023/07/15 07:00:06;;;;;;;7.30;3.50;;;23.50;76.10;;;;;;4973088;28;20031;-64
2023/07/15 07:02:32;;;;;;;7.63;3.67;;;23.60;75.60;;;;;;4968580;28;21456;-63
2023/07/15 07:04:57;;;;;;;4.25;3.85;;;23.70;75.30;;;;;;4970140;28;20150;-63
2023/07/15 07:07:23;;;;;;;5.53;3.70;;;23.80;75.00;;;;;;4975770;28;20088;-62
2023/07/15 07:09:49;;;;;;;6.18;3.78;;;23.90;75.40;;;;;;4977776;28;20030;-63
2023/07/15 07:12:14;;;;;;;4.32;3.70;;;24.00;75.60;;;;;;4982278;28;20031;-63
2023/07/15 07:14:40;;;;;;;4.47;3.63;;;24.10;74.90;;;;;;4977948;28;20081;-62
2023/07/15 07:17:06;;;;;;;4.10;3.00;;;24.20;74.70;;;;;;4972037;28;20050;-64
2023/07/15 07:19:32;;;;;;;3.80;3.38;;;24.30;75.10;;;;;;4968504;28;20049;-63
2023/07/15 07:21:57;;;;;;;3.53;3.20;;;24.40;74.80;;;;;;4975419;28;20049;-63
2023/07/15 07:24:23;;;;;;;3.40;3.10;;;24.50;74.60;;;;;;4978032;28;20034;-63
2023/07/15 07:26:50;;;;;;;3.97;3.28;;;24.60;74.40;;;;;;4976004;28;20043;-64
2023/07/15 07:29:18;;;;;;;3.70;2.88;;;24.80;74.30;;;;;;4971435;28;20529;-62
2023/07/15 07:31:43;;;;;;;6.32;2.80;;;24.90;74.00;;;;;;4974139;28;20035;-63
2023/07/15 07:34:09;;;;;;;3.40;2.80;;;25.00;73.70;;;;;;4970168;28;20125;-63
2023/07/15 07:36:37;;;;;;;4.63;2.97;;;25.10;73.30;;;;;;4963735;28;20502;-64
2023/07/15 07:39:03;;;;;;;2.95;2.75;;;25.20;72.90;;;;;;4967781;28;20554;-62
2023/07/15 07:41:28;;;;;;;2.85;2.65;;;25.40;73.20;;;;;;4970286;28;20045;-63
2023/07/15 07:43:54;;;;;;;3.30;2.90;;;25.50;72.20;;;;;;4968681;28;20503;-64
2023/07/15 07:46:20;;;;;;;4.22;3.03;;;25.70;71.90;;;;;;4967982;28;20374;-64
2023/07/15 07:48:45;;;;;;;3.38;2.85;;;25.80;70.90;;;;;;4970014;28;20130;-63
2023/07/15 07:51:11;;;;;;;3.45;3.15;;;25.90;70.70;;;;;;4973139;28;20597;-63
2023/07/15 07:53:37;;;;;;;6.07;2.78;;;26.10;70.70;;;;;;4967916;28;20042;-64
2023/07/15 07:56:02;;;;;;;3.17;2.80;;;26.20;71.40;;;;;;4970103;28;20034;-63
2023/07/15 07:58:28;;;;;;;4.25;3.00;;;26.30;69.40;;;;;;4967688;28;20392;-64
2023/07/15 08:00:54;;;;;;;3.33;2.63;;;26.40;68.10;;;;;;4971914;28;20127;-64
2023/07/15 08:03:19;;;;;;;2.88;2.50;;;26.60;69.00;;;;;;4968764;28;20034;-63
2023/07/15 08:05:47;;;;;;;2.75;2.40;;;26.70;68.00;;;;;;4974220;28;20035;-63
2023/07/15 08:08:13;;;;;;;4.63;2.47;;;26.80;66.60;;;;;;4967279;28;20038;-63
2023/07/15 08:10:42;;;;;;;4.15;2.40;;;27.00;66.30;;;;;;4964592;28;20035;-64
2023/07/15 08:13:08;;;;;;;2.30;2.20;;;27.10;65.30;;;;;;4967335;28;20092;-63
2023/07/15 08:15:35;;;;;;;2.42;2.20;;;27.30;66.70;;;;;;4963305;28;20034;-64
2023/07/15 08:18:02;;;;;;;2.78;2.20;;;27.50;65.20;;;;;;4967086;28;20917;-64
2023/07/15 08:20:29;;;;;;;2.90;2.60;;;27.60;64.40;;;;;;4967741;28;20058;-63
2023/07/15 08:22:55;;;;;;;3.83;2.38;;;27.80;64.30;;;;;;4968045;28;20041;-64
2023/07/15 08:25:21;;;;;;;2.30;2.10;;;27.90;65.30;;;;;;4971671;28;20051;-64
2023/07/15 08:27:46;;;;;;;2.40;2.20;;;28.00;62.10;;;;;;4971926;28;20042;-64
2023/07/15 08:30:12;;;;;;;2.78;2.10;;;28.20;61.30;;;;;;4969411;28;20486;-64
2023/07/15 08:32:37;;;;;;;2.25;2.05;;;28.30;60.10;;;;;;4972352;28;20038;-62
2023/07/15 08:35:04;;;;;;;2.75;1.90;;;28.50;59.70;;;;;;4972111;28;20449;-64
2023/07/15 08:37:30;;;;;;;2.08;1.80;;;28.60;59.10;;;;;;4972194;28;20058;-66
2023/07/15 08:39:56;;;;;;;2.25;1.90;;;28.80;58.90;;;;;;4973874;28;20478;-64
2023/07/15 08:42:23;;;;;;;2.45;1.88;;;29.00;58.50;;;;;;4972760;28;20041;-66
2023/07/15 08:44:52;;;;;;;1.92;1.80;;;29.10;57.50;;;;;;4974271;28;20157;-64
2023/07/15 08:47:24;;;;;;;2.17;1.90;;;29.30;56.60;;;;;;4973503;28;20521;-65
2023/07/15 08:49:53;;;;;;;2.17;1.83;;;29.50;56.40;;;;;;4966786;28;20038;-63
2023/07/15 08:52:21;;;;;;;3.90;2.20;;;29.60;55.70;;;;;;4972330;28;20093;-64
2023/07/15 08:54:48;;;;;;;1.88;1.77;;;29.80;55.40;;;;;;4972136;28;20068;-64
2023/07/15 08:57:17;;;;;;;1.90;1.80;;;29.90;55.30;;;;;;4970009;28;20481;-64
2023/07/15 08:59:45;;;;;;;1.90;1.80;;;30.10;54.00;;;;;;4971698;28;20027;-65
2023/07/15 09:02:10;;;;;;;2.05;1.80;;;30.20;54.00;;;;;;4973808;28;20034;-64
2023/07/15 09:04:38;;;;;;;1.95;1.85;;;30.40;54.50;;;;;;4967153;28;20042;-64
2023/07/15 09:07:04;;;;;;;2.03;1.80;;;30.50;52.60;;;;;;4976614;28;20038;-64
2023/07/15 09:09:37;;;;;;;1.73;1.63;;;30.60;52.40;;;;;;4976371;28;20410;-63
2023/07/15 09:12:08;;;;;;;4.28;1.88;;;30.70;51.10;;;;;;4971339;28;20041;-64
2023/07/15 09:14:46;;;;;;;2.03;1.60;;;30.90;51.50;;;;;;4972857;28;20048;-64
2023/07/15 09:17:20;;;;;;;1.30;1.20;;;31.00;50.50;;;;;;4975163;28;20093;-65
2023/07/15 09:19:47;;;;;;;1.98;1.77;;;31.10;50.70;;;;;;4975040;28;20058;-64
2023/07/15 09:22:13;;;;;;;1.88;1.67;;;31.20;51.10;;;;;;4976812;28;20162;-64
2023/07/15 09:24:39;;;;;;;1.60;1.50;;;31.30;51.50;;;;;;4975905;28;20579;-63
2023/07/15 09:27:06;;;;;;;1.50;1.40;;;31.50;50.70;;;;;;4975414;28;20182;-65
2023/07/15 09:29:32;;;;;;;1.60;1.50;;;31.60;50.10;;;;;;4973368;28;20038;-62
2023/07/15 09:31:59;;;;;;;1.90;1.80;;;31.70;49.90;;;;;;4973976;28;20043;-64
2023/07/15 09:34:25;;;;;;;1.90;1.70;;;31.80;49.80;;;;;;4972240;28;20040;-63
2023/07/15 09:36:54;;;;;;;2.33;1.60;;;31.90;49.20;;;;;;4973993;28;20514;-65
2023/07/15 09:39:22;;;;;;;1.50;1.40;;;32.00;48.50;;;;;;4973996;28;20121;-65
2023/07/15 09:42:07;;;;;;;1.80;1.70;;;32.10;48.30;;;;;;4977738;28;20041;-64
2023/07/15 09:44:34;;;;;;;;;;;32.20;47.80;;;;;;4975306;28;20380;-63
2023/07/15 09:47:01;;;;;;;4.60;2.00;;;32.30;50.50;;;;;;4974008;28;19913;-64
2023/07/15 09:49:26;;;;;;;1.52;1.42;;;32.30;48.00;;;;;;4975495;28;20042;-64
2023/07/15 09:51:52;;;;;;;1.92;1.63;;;32.40;47.70;;;;;;4972257;28;20141;-64
2023/07/15 09:54:21;;;;;;;2.03;1.83;;;32.50;47.10;;;;;;4967300;28;20070;-64
2023/07/15 09:56:49;;;;;;;2.03;1.80;;;32.60;46.40;;;;;;4968101;28;20108;-65
2023/07/15 09:59:18;;;;;;;2.72;1.77;;;32.60;46.00;;;;;;4969520;28;20616;-63
2023/07/15 10:01:47;;;;;;;2.13;1.42;;;32.70;45.50;;;;;;4971573;28;20050;-64
2023/07/15 10:04:32;;;;;;;1.52;1.42;;;32.80;45.80;;;;;;4971834;28;20588;-63
2023/07/15 10:07:00;;;;;;;1.80;1.40;;;32.90;45.40;;;;;;4969288;28;20518;-63
2023/07/15 10:09:26;;;;;;;2.33;1.13;;;32.90;45.50;;;;;;4971065;28;20038;-65
2023/07/15 10:11:52;;;;;;;1.90;1.65;;;33.00;45.20;;;;;;4972923;28;20042;-64
2023/07/15 10:14:19;;;;;;;2.50;1.58;;;33.10;45.70;;;;;;4972897;28;20034;-64
2023/07/15 10:16:45;;;;;;;2.20;1.48;;;33.10;45.20;;;;;;4969446;28;20035;-63
2023/07/15 10:19:48;;;;;;;1.40;1.30;;;33.20;45.30;;;;;;4967110;28;20537;-64
2023/07/15 10:22:18;;;;;;;2.40;1.50;;;33.30;44.30;;;;;;4976787;28;20045;-64
2023/07/15 10:24:56;;;;;;;1.40;1.30;;;33.30;44.50;;;;;;4970676;28;20105;-63
2023/07/15 10:27:26;;;;;;;2.30;1.60;;;33.40;42.80;;;;;;4976340;28;20026;-64
2023/07/15 10:30:22;;;;;;;1.50;1.40;;;33.50;43.00;;;;;;4975498;28;20030;-64
2023/07/15 10:33:05;;;;;;;1.50;1.40;;;33.60;43.90;;;;;;4974360;28;20035;-63
2023/07/15 10:35:51;;;;;;;1.70;1.60;;;33.70;42.90;;;;;;4975986;28;20100;-64
2023/07/15 10:38:31;;;;;;;1.85;1.30;;;33.70;43.20;;;;;;4973525;28;20038;-63
2023/07/15 10:41:02;;;;;;;2.13;1.50;;;33.80;42.40;;;;;;4976800;28;20031;-64
2023/07/15 10:43:33;;;;;;;3.97;1.58;;;33.90;42.80;;;;;;4976841;28;20034;-64
2023/07/15 10:46:09;;;;;;;1.55;1.45;;;33.90;42.80;;;;;;4976176;28;20045;-64
2023/07/15 10:48:35;;;;;;;1.08;1.00;;;33.90;42.80;;;;;;4973255;28;20039;-64
2023/07/15 10:51:07;;;;;;;2.30;0.95;;;34.00;41.20;;;;;;4975411;28;20046;-64
2023/07/15 10:53:33;;;;;;;1.38;1.27;;;34.00;40.00;;;;;;4975874;28;20391;-64
2023/07/15 10:56:09;;;;;;;1.42;1.33;;;34.10;41.00;;;;;;4976183;28;20070;-64
2023/07/15 10:58:36;;;;;;;1.25;1.15;;;34.10;40.40;;;;;;4969971;28;20954;-65
2023/07/15 11:01:07;;;;;;;0.82;0.82;;;34.20;41.40;;;;;;4974227;28;20633;-64
2023/07/15 11:03:41;;;;;;;1.13;1.02;;;34.30;40.00;;;;;;4975167;28;20410;-65
2023/07/15 11:06:10;;;;;;;1.58;1.30;;;34.30;40.90;;;;;;4975591;28;20532;-64
2023/07/15 11:08:36;;;;;;;1.10;1.00;;;34.40;40.60;;;;;;4972841;28;20041;-64
2023/07/15 11:11:06;;;;;;;1.42;1.05;;;34.40;39.70;;;;;;4979902;28;20373;-64
2023/07/15 11:13:36;;;;;;;1.58;1.00;;;34.50;39.40;;;;;;4977233;28;20113;-65
2023/07/15 11:16:02;;;;;;;1.00;1.00;;;34.50;39.10;;;;;;4974912;28;20043;-64
2023/07/15 11:18:28;;;;;;;1.17;1.08;;;34.50;39.60;;;;;;4975121;28;20034;-64
2023/07/15 11:20:57;;;;;;;1.10;1.00;;;34.50;39.20;;;;;;4973939;28;20042;-65
2023/07/15 11:23:23;;;;;;;1.58;1.10;;;34.50;39.00;;;;;;4975224;28;20034;-65
2023/07/15 11:25:49;;;;;;;1.10;0.93;;;34.60;38.90;;;;;;4974261;28;20034;-64
2023/07/15 11:28:16;;;;;;;1.35;1.25;;;34.60;38.90;;;;;;4972593;28;20034;-64
2023/07/15 11:30:48;;;;;;;1.15;1.05;;;34.60;39.30;;;;;;4973550;28;20093;-64
2023/07/15 11:33:15;;;;;;;1.10;1.00;;;34.60;38.40;;;;;;4974612;28;20524;-64
2023/07/15 11:35:42;;;;;;;1.10;1.00;;;34.60;39.00;;;;;;4975532;28;20035;-63
2023/07/15 11:38:14;;;;;;;2.38;1.10;;;34.50;38.60;;;;;;4974738;28;20027;-64
2023/07/15 11:40:59;;;;;;;1.23;1.13;;;34.50;37.20;;;;;;4975043;28;20042;-64
2023/07/15 11:43:30;;;;;;;1.50;0.95;;;34.60;38.60;;;;;;4972741;28;21265;-65
2023/07/15 11:46:00;;;;;;;2.25;1.00;;;34.50;38.10;;;;;;4969780;28;20118;-64
2023/07/15 11:48:28;;;;;;;2.08;1.00;;;34.60;38.10;;;;;;4973843;28;20030;-63
2023/07/15 11:51:05;;;;;;;1.30;1.20;;;34.60;38.30;;;;;;4975940;28;20048;-62
2023/07/15 11:53:35;;;;;;;1.00;1.00;;;34.60;38.00;;;;;;4975592;28;20035;-64
2023/07/15 11:56:01;;;;;;;1.10;1.10;;;34.70;38.40;;;;;;4976472;28;20042;-65
2023/07/15 11:58:42;;;;;;;1.00;1.00;;;34.60;37.80;;;;;;4972926;28;20023;-64
2023/07/15 12:01:18;;;;;;;1.75;1.40;;;34.70;37.70;;;;;;4969066;28;20568;-64
2023/07/15 12:03:45;;;;;;;1.48;1.33;;;34.70;37.20;;;;;;4974452;28;20045;-64
2023/07/15 12:06:18;;;;;;;1.20;1.20;;;34.80;37.50;;;;;;4972482;28;20116;-65
2023/07/15 12:09:10;;;;;;;1.40;1.30;;;34.80;38.00;;;;;;4973655;28;20041;-63
2023/07/15 12:11:36;;;;;;;1.05;1.00;;;34.80;38.10;;;;;;4968673;28;20069;-65
2023/07/15 12:14:03;;;;;;;1.42;1.10;;;34.80;38.40;;;;;;4973519;28;20042;-63
2023/07/15 12:16:30;;;;;;;1.70;1.27;;;34.80;37.70;;;;;;4972648;28;20050;-63
2023/07/15 12:18:57;;;;;;;1.30;1.10;;;34.80;37.10;;;;;;4972136;28;20118;-64
2023/07/15 12:21:23;;;;;;;1.27;1.17;;;34.90;37.00;;;;;;4969351;28;20097;-64
2023/07/15 12:23:50;;;;;;;1.17;1.08;;;34.80;36.30;;;;;;4968901;28;20031;-63
2023/07/15 12:26:17;;;;;;;1.40;1.30;;;34.80;36.60;;;;;;4970744;28;20466;-63
2023/07/15 12:28:43;;;;;;;1.50;1.40;;;34.80;37.00;;;;;;4974165;28;20117;-64
2023/07/15 12:31:09;;;;;;;1.33;1.23;;;34.80;36.70;;;;;;4974064;28;20039;-64
2023/07/15 12:33:35;;;;;;;1.50;1.40;;;34.90;37.40;;;;;;4974834;28;20027;-64
2023/07/15 12:36:02;;;;;;;1.65;1.33;;;34.90;37.00;;;;;;4972055;28;20585;-65
2023/07/15 12:38:27;;;;;;;1.73;1.35;;;34.90;36.60;;;;;;4974573;28;20089;-64
2023/07/15 12:40:53;;;;;;;1.40;1.30;;;34.90;36.00;;;;;;4974015;28;20042;-65
2023/07/15 12:43:19;;;;;;;1.52;1.40;;;35.00;36.30;;;;;;4975924;28;20030;-64
2023/07/15 12:45:44;;;;;;;2.55;1.20;;;35.00;36.60;;;;;;4975787;28;20039;-64
2023/07/15 12:48:10;;;;;;;1.27;1.17;;;35.00;36.10;;;;;;4977419;28;20037;-64
2023/07/15 12:50:35;;;;;;;1.40;1.30;;;35.00;35.80;;;;;;4976144;28;20046;-64